Terminal Aerodrome Forecast
Issued by NWS Mt. Holly, NJ

Home | Current Version | Previous Version | Text Only | Print | Product List | Glossary On
Versions: 1 2 3 4 5 6 7 8 9 10 11 12 13 14 15
000
FTUS41 KPHI 231146
TAFILG
TAF
KILG 231146Z 2312/2412 VRB03KT 1/2SM FG OVC004
     FM231400 VRB03KT 2SM BR OVC004
     FM231500 22004KT 4SM BR BKN008
     FM231600 22006KT P6SM BKN025
     FM231800 18006KT P6SM SCT040
     FM240700 17004KT 2SM BR OVC008=

USA.gov is the U.S. government's official web portal to all federal, state and local government web resources and services.